Time;durP1;ratioP1;P1;durP2;ratioP2;P2;SDS_P1;SDS_P2;PMS_P1;PMS_P2;Temp;Humidity;BMP_temperature;BMP_pressure;BME280_temperature;BME280_humidity;BME280_pressure;Samples;Min_cycle;Max_cycle;Signal;HPM_P1;HPM_P2
2022/07/20 00:01:11;;;;;;;4.93;2.38;;;;;;;18.85;46.24;96042.91;5087139;28;20036;-79
2022/07/20 00:03:36;;;;;;;3.22;2.50;;;;;;;18.85;47.52;96039.34;5087929;28;20057;-79
2022/07/20 00:06:02;;;;;;;3.72;2.63;;;;;;;18.85;47.85;96034.78;5069082;28;20027;-80
2022/07/20 00:11:20;;;;;;;3.33;2.10;;;;;;;18.74;47.29;96041.72;5087558;28;20042;-80
2022/07/20 00:13:53;;;;;;;4.68;2.30;;;;;;;18.67;47.95;96045.50;5087183;28;20107;-79
2022/07/20 00:16:19;;;;;;;4.50;2.70;;;;;;;18.62;48.04;96044.25;5087336;28;20104;-79
2022/07/20 00:18:45;;;;;;;4.32;2.30;;;;;;;18.66;48.42;96039.22;5052058;28;20481;-79
2022/07/20 00:21:10;;;;;;;3.22;2.13;;;;;;;18.64;48.17;96031.28;5069253;28;20028;-79
2022/07/20 00:23:36;;;;;;;4.45;2.33;;;;;;;18.64;47.90;96025.84;5068963;28;20020;-79
2022/07/20 00:26:01;;;;;;;4.30;2.53;;;;;;;18.60;47.79;96030.06;5086828;28;20066;-79
2022/07/20 00:28:26;;;;;;;5.82;2.40;;;;;;;18.55;47.57;96040.72;5069175;28;20024;-80
2022/07/20 00:30:52;;;;;;;4.53;2.50;;;;;;;18.47;48.34;96033.63;5086934;28;20035;-79
2022/07/20 00:33:17;;;;;;;4.50;2.70;;;;;;;18.46;48.25;96036.56;5052097;28;20035;-80
2022/07/20 00:35:43;;;;;;;4.60;2.33;;;;;;;18.34;48.73;96031.78;5086722;28;20024;-80
2022/07/20 00:38:08;;;;;;;3.75;2.45;;;;;;;18.31;48.41;96043.06;5086988;28;20054;-80
2022/07/20 00:40:33;;;;;;;4.95;2.10;;;;;;;18.28;48.77;96040.78;5068790;28;20053;-79
2022/07/20 00:42:59;;;;;;;9.18;2.80;;;;;;;18.22;48.87;96044.31;5087709;28;20024;-80
2022/07/20 00:45:24;;;;;;;3.10;2.00;;;;;;;18.18;48.70;96048.50;5051939;28;20020;-79
2022/07/20 00:47:51;;;;;;;5.20;2.42;;;;;;;18.14;48.41;96043.50;5069173;28;20039;-80
2022/07/20 00:50:17;;;;;;;3.83;2.20;;;;;;;18.11;48.92;96038.47;5086889;28;20035;-80
2022/07/20 00:52:42;;;;;;;3.05;2.28;;;;;;;18.13;48.56;96041.84;5068265;28;20119;-80
2022/07/20 00:55:08;;;;;;;4.30;2.28;;;;;;;18.12;48.85;96040.16;5068529;28;20032;-80
2022/07/20 00:57:33;;;;;;;4.72;2.40;;;;;;;18.13;48.90;96041.84;5086759;28;20023;-79
2022/07/20 00:59:59;;;;;;;2.42;1.90;;;;;;;18.08;48.43;96024.47;5068914;28;20028;-79
2022/07/20 01:02:24;;;;;;;6.45;2.55;;;;;;;18.06;48.69;96027.38;5072765;28;20028;-79
2022/07/20 01:04:50;;;;;;;4.00;2.20;;;;;;;18.01;48.15;96032.59;5043576;28;20024;-78
2022/07/20 01:07:15;;;;;;;4.65;2.40;;;;;;;17.97;48.80;96026.78;5087564;28;20453;-79
2022/07/20 01:09:41;;;;;;;3.03;2.17;;;;;;;17.91;49.11;96033.06;5052516;28;20446;-79
2022/07/20 01:12:09;;;;;;;5.13;2.05;;;;;;;17.85;49.10;96029.28;5052834;28;20490;-81
2022/07/20 01:14:34;;;;;;;3.42;2.28;;;;;;;17.83;49.46;96035.97;5068772;28;20489;-79
2022/07/20 01:17:00;;;;;;;3.40;2.22;;;;;;;17.78;48.87;96037.41;5068655;28;20040;-79
2022/07/20 01:19:25;;;;;;;4.22;2.30;;;;;;;17.74;48.76;96033.47;5086239;28;20554;-79
2022/07/20 01:21:51;;;;;;;4.45;2.33;;;;;;;17.70;49.88;96028.66;5086964;28;20463;-79
2022/07/20 01:24:16;;;;;;;3.97;2.35;;;;;;;17.67;49.29;96032.59;5067809;28;20028;-79
2022/07/20 01:26:43;;;;;;;3.53;2.50;;;;;;;17.71;48.90;96025.75;5068499;28;20098;-80
2022/07/20 01:29:08;;;;;;;4.75;2.47;;;;;;;17.75;49.15;96037.00;5068256;28;20032;-79
2022/07/20 01:31:34;;;;;;;4.13;2.80;;;;;;;17.74;48.90;96029.91;5051818;28;20097;-79
2022/07/20 01:34:00;;;;;;;5.35;2.65;;;;;;;17.74;48.75;96025.31;5086386;28;20029;-79
2022/07/20 01:36:25;;;;;;;3.83;2.53;;;;;;;17.75;48.88;96026.16;5068040;28;20330;-80
2022/07/20 01:38:52;;;;;;;2.80;2.03;;;;;;;17.75;48.61;96023.44;5085821;28;20255;-79
2022/07/20 01:41:17;;;;;;;4.70;2.40;;;;;;;17.75;48.67;96028.88;5086169;28;20024;-79
2022/07/20 01:43:42;;;;;;;4.93;2.50;;;;;;;17.66;49.19;96031.78;5068482;28;20031;-79
2022/07/20 01:46:08;;;;;;;2.63;1.85;;;;;;;17.57;49.12;96033.03;5051082;28;20035;-80
2022/07/20 01:48:33;;;;;;;3.85;2.20;;;;;;;17.48;49.56;96036.97;5068225;28;20472;-80
2022/07/20 01:50:59;;;;;;;3.45;2.38;;;;;;;17.37;49.83;96039.25;5086042;28;20093;-79
2022/07/20 01:53:24;;;;;;;3.88;2.63;;;;;;;17.33;50.04;96037.97;5067872;28;20028;-79
2022/07/20 01:55:53;;;;;;;6.80;2.45;;;;;;;17.26;50.18;96039.84;5068196;28;20032;-79
2022/07/20 01:58:18;;;;;;;4.60;2.60;;;;;;;17.21;50.28;96050.47;5067771;28;20036;-79
2022/07/20 02:00:44;;;;;;;5.65;2.45;;;;;;;17.18;50.61;96047.09;5051226;28;20030;-79
2022/07/20 02:03:09;;;;;;;4.53;2.40;;;;;;;17.15;50.74;96044.81;5051048;28;20472;-78
2022/07/20 02:05:35;;;;;;;3.80;2.40;;;;;;;17.13;50.94;96046.06;5050657;28;20028;-79
2022/07/20 02:08:00;;;;;;;4.43;2.65;;;;;;;17.03;50.99;96047.25;5085688;28;20028;-79
2022/07/20 02:10:25;;;;;;;5.10;2.10;;;;;;;17.03;50.65;96060.81;5068255;28;20096;-79
2022/07/20 02:12:51;;;;;;;4.65;2.58;;;;;;;17.04;50.55;96051.63;5085086;28;20562;-79
2022/07/20 02:18:06;;;;;;;3.30;2.22;;;;;;;17.03;50.04;96052.66;5086097;28;20085;-79
2022/07/20 02:20:31;;;;;;;5.53;2.50;;;;;;;17.05;50.18;96047.91;5067914;28;20043;-79
2022/07/20 02:22:56;;;;;;;4.72;2.40;;;;;;;17.00;50.18;96055.78;5067146;28;20028;-81
2022/07/20 02:25:22;;;;;;;4.40;2.53;;;;;;;16.96;50.21;96048.28;5067188;28;20027;-78
2022/07/20 02:27:47;;;;;;;3.10;2.20;;;;;;;16.96;50.10;96046.38;5086227;28;20036;-78
2022/07/20 02:30:13;;;;;;;3.67;2.47;;;;;;;16.88;50.19;96058.22;5067605;28;20035;-79
2022/07/20 02:32:38;;;;;;;3.65;2.33;;;;;;;16.83;50.39;96060.69;5051162;28;20028;-79
2022/07/20 02:35:04;;;;;;;4.07;2.30;;;;;;;16.81;50.46;96054.66;5085412;28;20028;-79
2022/07/20 02:37:29;;;;;;;4.22;2.53;;;;;;;16.72;50.67;96053.16;5085138;28;20402;-79
2022/07/20 02:39:55;;;;;;;5.20;2.50;;;;;;;16.68;50.62;96050.03;5050003;28;20023;-80
2022/07/20 02:42:20;;;;;;;6.82;2.75;;;;;;;16.61;50.89;96049.13;5067231;28;20024;-79
2022/07/20 02:44:46;;;;;;;3.85;2.60;;;;;;;16.52;51.27;96054.72;5085473;28;20024;-78
2022/07/20 02:47:11;;;;;;;6.18;2.45;;;;;;;16.55;51.40;96058.91;5084870;28;20035;-79
2022/07/20 02:49:37;;;;;;;4.18;2.60;;;;;;;16.56;50.99;96061.41;5069307;28;20020;-78
2022/07/20 02:52:02;;;;;;;9.65;3.22;;;;;;;16.56;51.39;96065.97;5084865;28;20032;-79
2022/07/20 02:54:28;;;;;;;6.90;3.10;;;;;;;16.52;51.34;96067.44;5067977;28;20016;-80
2022/07/20 02:56:53;;;;;;;6.43;2.92;;;;;;;16.57;51.20;96067.69;5085054;28;20020;-80
2022/07/20 02:59:18;;;;;;;5.72;2.65;;;;;;;16.59;51.19;96064.75;5085085;28;20089;-80
2022/07/20 03:01:44;;;;;;;6.68;2.80;;;;;;;16.64;51.05;96073.09;5084912;28;20069;-80
2022/07/20 03:04:09;;;;;;;4.20;2.63;;;;;;;16.58;51.07;96069.34;5084518;28;20043;-79
2022/07/20 03:06:35;;;;;;;3.53;2.72;;;;;;;16.64;50.79;96070.41;5050572;28;20391;-79
2022/07/20 03:09:00;;;;;;;4.75;2.75;;;;;;;16.66;50.92;96066.47;5066247;28;20021;-80
2022/07/20 03:11:26;;;;;;;6.65;2.97;;;;;;;16.67;50.75;96070.00;5085530;28;20020;-79
2022/07/20 03:13:51;;;;;;;4.35;2.80;;;;;;;16.73;50.54;96066.50;5084607;28;20020;-79
2022/07/20 03:16:16;;;;;;;8.25;2.70;;;;;;;16.75;50.50;96069.03;5088259;28;20058;-79
2022/07/20 03:18:42;;;;;;;5.72;2.63;;;;;;;16.73;50.57;96069.22;5088322;28;20040;-79
2022/07/20 03:21:07;;;;;;;8.57;2.60;;;;;;;16.74;50.16;96083.56;5088390;28;20036;-79
2022/07/20 03:23:33;;;;;;;3.78;2.50;;;;;;;16.68;50.34;96079.81;5070004;28;20486;-80
2022/07/20 03:25:58;;;;;;;9.73;3.15;;;;;;;16.67;50.23;96078.97;5069742;28;20110;-79
2022/07/20 03:28:24;;;;;;;9.88;3.30;;;;;;;16.56;50.56;96083.06;5088502;28;20031;-79
2022/07/20 03:30:49;;;;;;;9.18;2.72;;;;;;;16.65;50.43;96086.44;5069678;28;20027;-80
2022/07/20 03:33:14;;;;;;;9.00;3.00;;;;;;;16.63;50.52;96079.56;5070344;28;20028;-80
2022/07/20 03:35:40;;;;;;;5.60;2.85;;;;;;;16.56;50.55;96076.81;5087883;28;20054;-79
2022/07/20 03:38:05;;;;;;;3.50;2.58;;;;;;;16.49;50.96;96081.38;5070116;28;20089;-79
2022/07/20 03:40:31;;;;;;;8.10;3.28;;;;;;;16.51;50.97;96090.09;5088194;28;20211;-79
2022/07/20 03:42:57;;;;;;;5.15;3.40;;;;;;;16.46;50.84;96095.31;5069797;28;20410;-79
2022/07/20 03:45:22;;;;;;;4.65;2.60;;;;;;;16.33;51.45;96088.75;5088143;28;20059;-79
2022/07/20 03:47:48;;;;;;;7.63;3.03;;;;;;;16.35;51.67;96093.94;5087871;28;20039;-81
2022/07/20 03:50:13;;;;;;;6.50;3.40;;;;;;;16.38;51.28;96096.28;5087846;28;20023;-79
2022/07/20 03:52:39;;;;;;;10.63;3.20;;;;;;;16.35;51.53;96100.22;5087183;28;20028;-80
2022/07/20 03:55:05;;;;;;;8.05;3.20;;;;;;;16.36;51.84;96101.91;5088398;28;20031;-79
2022/07/20 03:57:30;;;;;;;5.95;3.58;;;;;;;16.34;51.90;96098.56;5052185;28;20111;-82
2022/07/20 03:59:56;;;;;;;7.43;3.00;;;;;;;16.36;51.97;96092.94;5070470;28;20058;-79
2022/07/20 04:02:21;;;;;;;4.60;3.22;;;;;;;16.42;52.00;96098.41;5087027;28;20432;-80
2022/07/20 04:04:46;;;;;;;4.13;3.13;;;;;;;16.46;52.16;96095.31;5069156;28;20016;-79
2022/07/20 04:07:12;;;;;;;4.60;3.13;;;;;;;16.50;51.78;96088.44;5069038;28;20024;-79
2022/07/20 04:09:43;;;;;;;6.20;3.30;;;;;;;16.55;51.70;96094.09;5087288;28;20113;-79
2022/07/20 04:12:10;;;;;;;7.70;3.40;;;;;;;16.56;51.81;96093.06;5037967;28;20093;-79
2022/07/20 04:14:35;;;;;;;5.70;3.78;;;;;;;16.52;51.99;96094.50;5086748;28;20040;-79
2022/07/20 04:17:01;;;;;;;7.57;4.50;;;;;;;16.61;51.99;96096.00;5088821;28;20039;-79
2022/07/20 04:19:27;;;;;;;7.55;3.75;;;;;;;16.65;52.18;96096.47;5078809;28;20040;-79
2022/07/20 04:21:56;;;;;;;4.90;3.58;;;;;;;16.70;52.27;96101.28;5087861;28;20043;-78
2022/07/20 04:24:22;;;;;;;9.38;3.83;;;;;;;16.78;52.73;96096.50;5051990;28;20070;-79
2022/07/20 04:26:47;;;;;;;8.52;3.75;;;;;;;16.89;52.70;96103.25;5068449;28;20452;-79
2022/07/20 04:29:13;;;;;;;10.73;3.05;;;;;;;16.99;53.32;96108.28;5069075;28;20035;-81
2022/07/20 04:31:38;;;;;;;12.93;4.05;;;;;;;17.11;53.72;96111.31;5086519;28;20073;-80
2022/07/20 04:34:04;;;;;;;7.78;3.60;;;;;;;17.24;53.21;96106.97;5087759;28;20058;-79
2022/07/20 04:36:29;;;;;;;7.95;3.58;;;;;;;17.36;52.11;96105.34;5086133;28;20510;-79
2022/07/20 04:38:55;;;;;;;5.88;3.50;;;;;;;17.55;51.64;96105.63;5052434;28;20016;-80
2022/07/20 04:41:20;;;;;;;8.80;3.42;;;;;;;17.72;51.65;96114.19;5068431;28;20016;-80
2022/07/20 04:43:45;;;;;;;6.80;3.60;;;;;;;17.81;51.84;96101.28;5051652;28;20027;-79
2022/07/20 04:46:11;;;;;;;7.20;3.38;;;;;;;18.00;52.35;96115.91;5068766;28;20358;-80
2022/07/20 04:48:36;;;;;;;4.88;3.50;;;;;;;18.19;52.24;96113.44;5086146;28;20020;-79
2022/07/20 04:51:02;;;;;;;5.70;3.78;;;;;;;18.35;51.81;96109.47;5087320;28;20024;-80
2022/07/20 04:53:28;;;;;;;6.93;3.65;;;;;;;18.52;52.07;96114.47;5085636;28;20063;-79
2022/07/20 04:55:53;;;;;;;5.40;3.83;;;;;;;18.67;51.81;96110.69;5069308;28;20183;-80
2022/07/20 04:58:19;;;;;;;5.68;3.55;;;;;;;18.77;50.71;96111.94;5085874;28;20537;-80
2022/07/20 05:00:44;;;;;;;8.45;3.63;;;;;;;18.89;50.16;96112.09;5086577;28;20020;-79
2022/07/20 05:03:10;;;;;;;10.93;3.63;;;;;;;19.08;49.03;96117.69;5068147;28;20024;-81
2022/07/20 05:05:35;;;;;;;8.80;3.63;;;;;;;19.21;48.44;96116.00;5067856;28;20012;-79
2022/07/20 05:08:02;;;;;;;8.93;3.78;;;;;;;19.36;48.42;96116.56;5068305;28;20028;-79
2022/07/20 05:10:28;;;;;;;7.18;3.35;;;;;;;19.50;49.92;96119.22;5067707;28;20028;-79
2022/07/20 05:12:53;;;;;;;8.20;3.45;;;;;;;19.68;49.67;96125.81;5052125;28;20087;-79
2022/07/20 05:15:19;;;;;;;5.10;3.45;;;;;;;19.81;49.67;96125.75;5050828;28;20481;-79
2022/07/20 05:17:45;;;;;;;4.78;3.47;;;;;;;19.94;48.83;96124.81;5068008;28;20482;-80
2022/07/20 05:20:11;;;;;;;7.72;3.67;;;;;;;20.08;48.46;96120.16;5085172;28;20462;-80
2022/07/20 05:22:36;;;;;;;8.35;3.92;;;;;;;20.19;48.00;96123.19;5067231;28;20043;-80
2022/07/20 05:25:02;;;;;;;4.60;3.15;;;;;;;20.33;47.25;96124.75;5050979;28;20460;-79
2022/07/20 05:27:27;;;;;;;6.28;3.10;;;;;;;20.48;46.41;96120.88;5050833;28;20028;-79
2022/07/20 05:29:53;;;;;;;8.25;2.80;;;;;;;20.60;45.75;96121.78;5051339;28;20032;-79
2022/07/20 05:32:18;;;;;;;6.07;2.92;;;;;;;20.72;45.28;96123.78;5067411;28;20039;-79
2022/07/20 05:34:44;;;;;;;10.52;3.10;;;;;;;20.84;45.38;96126.63;5068231;28;20080;-79
2022/07/20 05:37:09;;;;;;;7.20;2.50;;;;;;;20.98;44.97;96124.59;5067406;28;20027;-80
2022/07/20 05:39:35;;;;;;;4.72;2.83;;;;;;;21.08;43.69;96115.91;5067011;28;20028;-80
2022/07/20 05:42:00;;;;;;;9.23;3.00;;;;;;;21.19;43.47;96117.88;5067413;28;20114;-79
2022/07/20 05:44:25;;;;;;;10.18;3.42;;;;;;;21.30;43.40;96124.44;5085600;28;20028;-78
2022/07/20 05:46:51;;;;;;;14.77;3.60;;;;;;;21.40;42.58;96123.91;5085107;28;20028;-80
2022/07/20 05:49:16;;;;;;;11.50;3.60;;;;;;;21.49;42.85;96119.81;5085566;28;20078;-80
2022/07/20 05:51:42;;;;;;;14.77;3.72;;;;;;;21.61;42.31;96124.47;5086045;28;20028;-80
2022/07/20 05:54:07;;;;;;;10.93;3.67;;;;;;;21.72;41.86;96118.25;5085581;28;20012;-80
2022/07/20 05:56:33;;;;;;;10.90;3.25;;;;;;;21.79;41.03;96129.09;5086532;28;20389;-80
2022/07/20 05:58:58;;;;;;;6.18;3.10;;;;;;;21.79;41.04;96126.38;5084756;28;20016;-79
2022/07/20 06:01:24;;;;;;;7.72;3.00;;;;;;;21.65;41.32;96125.69;5085901;28;20028;-80
2022/07/20 06:03:49;;;;;;;11.07;2.95;;;;;;;21.67;41.46;96128.16;5085170;28;20028;-80
2022/07/20 06:06:15;;;;;;;7.20;3.10;;;;;;;21.77;41.20;96123.03;5085518;28;20020;-80
2022/07/20 06:08:40;;;;;;;8.90;2.72;;;;;;;21.79;41.55;96120.91;5050456;28;20546;-80
2022/07/20 06:11:08;;;;;;;13.95;3.17;;;;;;;21.91;40.88;96123.66;5050670;28;20034;-80
2022/07/20 06:13:34;;;;;;;9.18;2.75;;;;;;;22.02;41.40;96130.22;5068130;28;20044;-80
2022/07/20 06:15:59;;;;;;;11.55;3.00;;;;;;;22.22;40.92;96126.34;5066759;28;21030;-80
2022/07/20 06:18:24;;;;;;;12.05;3.28;;;;;;;22.30;40.34;96126.03;5051365;28;20058;-80
2022/07/20 06:20:50;;;;;;;5.47;2.85;;;;;;;22.39;39.67;96129.25;5084365;28;20056;-81
2022/07/20 06:23:15;;;;;;;6.07;2.63;;;;;;;22.19;39.27;96121.38;5050517;28;20023;-80
2022/07/20 06:25:41;;;;;;;8.02;2.67;;;;;;;22.35;39.50;96128.88;5085074;28;20406;-79
2022/07/20 06:28:07;;;;;;;8.65;2.85;;;;;;;22.35;39.19;96123.44;5084617;28;20028;-79
2022/07/20 06:30:32;;;;;;;13.05;3.17;;;;;;;22.40;39.00;96125.44;5085233;28;20453;-79
2022/07/20 06:32:58;;;;;;;5.03;2.50;;;;;;;22.53;39.78;96118.09;5066553;28;20051;-80
2022/07/20 06:35:23;;;;;;;10.25;2.78;;;;;;;22.69;40.41;96114.69;5067844;28;20089;-80
2022/07/20 06:37:48;;;;;;;7.10;2.92;;;;;;;22.83;38.64;96109.78;5066408;28;20028;-80
2022/07/20 06:40:15;;;;;;;5.05;2.70;;;;;;;22.84;39.88;96114.19;5085427;28;20501;-80
2022/07/20 06:42:40;;;;;;;8.48;3.03;;;;;;;22.93;39.80;96111.09;5050080;28;20482;-80
2022/07/20 06:45:06;;;;;;;6.18;2.67;;;;;;;22.96;39.70;96100.50;5084837;28;20078;-80
2022/07/20 06:47:31;;;;;;;7.07;2.78;;;;;;;23.00;38.68;96108.22;5084681;28;20585;-80
2022/07/20 06:49:57;;;;;;;11.63;3.28;;;;;;;23.01;38.44;96107.16;5085132;28;20449;-80
2022/07/20 06:52:22;;;;;;;7.75;2.83;;;;;;;22.66;38.94;96100.66;5089394;28;20042;-80
2022/07/20 06:54:48;;;;;;;8.63;2.75;;;;;;;22.46;39.11;96108.09;5088483;28;20544;-79
2022/07/20 06:57:14;;;;;;;7.70;2.90;;;;;;;22.35;39.37;96109.75;5070913;28;20095;-80
2022/07/20 06:59:40;;;;;;;5.82;2.50;;;;;;;22.62;38.80;96096.75;5069921;28;20390;-81
2022/07/20 07:02:05;;;;;;;6.35;2.47;;;;;;;22.81;38.71;96102.91;5088601;28;20024;-80
2022/07/20 07:04:31;;;;;;;8.50;2.60;;;;;;;23.15;39.06;96103.09;5069927;28;20537;-80
2022/07/20 07:06:58;;;;;;;5.00;2.47;;;;;;;23.22;38.97;96100.22;5088213;28;20444;-81
2022/07/20 07:09:24;;;;;;;5.85;2.30;;;;;;;23.04;38.76;96098.47;5070143;28;20027;-80
2022/07/20 07:11:49;;;;;;;10.20;2.60;;;;;;;22.97;38.64;96102.16;5053307;28;20107;-80
2022/07/20 07:14:15;;;;;;;7.75;2.70;;;;;;;22.94;38.66;96099.09;5070547;28;20024;-80
2022/07/20 07:16:40;;;;;;;9.05;3.22;;;;;;;22.95;38.16;96093.38;5052861;28;20039;-81
2022/07/20 07:19:06;;;;;;;7.15;3.38;;;;;;;22.80;39.33;96098.50;5088481;28;20086;-80
2022/07/20 07:21:31;;;;;;;15.73;3.33;;;;;;;22.68;39.21;96093.06;5069669;28;20024;-81
2022/07/20 07:23:57;;;;;;;9.85;3.53;;;;;;;22.69;39.65;96089.22;5088423;28;20055;-80
2022/07/20 07:26:22;;;;;;;7.60;3.20;;;;;;;23.02;39.87;96093.22;5052891;28;20051;-80
2022/07/20 07:28:48;;;;;;;6.90;2.60;;;;;;;23.51;39.55;96085.75;5069553;28;20020;-80
2022/07/20 07:31:15;;;;;;;8.02;2.97;;;;;;;23.73;38.12;96088.63;5070517;28;20028;-80
2022/07/20 07:33:40;;;;;;;15.48;2.75;;;;;;;23.49;38.65;96082.44;5079178;28;20038;-80
2022/07/20 07:36:06;;;;;;;8.45;2.67;;;;;;;23.26;39.21;96086.88;5094108;28;20028;-81
2022/07/20 07:38:31;;;;;;;7.53;3.05;;;;;;;23.15;38.88;96080.38;5070118;28;20020;-80
2022/07/20 07:40:57;;;;;;;17.20;3.17;;;;;;;23.18;39.30;96079.91;5088969;28;20032;-80
2022/07/20 07:43:22;;;;;;;17.15;3.28;;;;;;;23.33;39.79;96082.94;5088126;28;20020;-80
2022/07/20 07:45:48;;;;;;;9.30;3.00;;;;;;;23.23;38.97;96084.63;5087976;28;20434;-80
2022/07/20 07:48:13;;;;;;;7.47;2.65;;;;;;;23.51;38.08;96083.84;5052957;28;20496;-80
2022/07/20 07:50:39;;;;;;;10.38;3.15;;;;;;;23.45;37.86;96082.09;5053630;28;20418;-80
2022/07/20 07:53:07;;;;;;;6.60;2.65;;;;;;;23.72;37.79;96078.75;5053871;28;20030;-80
2022/07/20 07:55:36;;;;;;;5.60;2.90;;;;;;;23.68;38.94;96080.34;5053622;28;20028;-81
2022/07/20 07:58:01;;;;;;;7.43;2.63;;;;;;;23.72;38.79;96078.75;5070313;28;20095;-81
2022/07/20 08:00:26;;;;;;;7.72;2.83;;;;;;;23.80;38.70;96075.63;5052395;28;20418;-81
2022/07/20 08:02:53;;;;;;;7.75;3.20;;;;;;;23.57;38.50;96062.88;5068810;28;20031;-83
2022/07/20 08:05:19;;;;;;;7.80;2.65;;;;;;;23.66;38.51;96069.63;5069273;28;20020;-81
2022/07/20 08:07:44;;;;;;;10.82;3.00;;;;;;;23.68;39.24;96066.66;5052670;28;20028;-81
2022/07/20 08:10:09;;;;;;;7.63;2.92;;;;;;;24.07;38.26;96065.94;5087490;28;20035;-82
2022/07/20 08:12:36;;;;;;;7.55;2.75;;;;;;;24.41;37.95;96065.13;5051806;28;20036;-81
2022/07/20 08:15:02;;;;;;;7.78;2.53;;;;;;;24.60;37.47;96059.41;5053438;28;20413;-81
2022/07/20 08:17:27;;;;;;;7.32;2.65;;;;;;;24.65;36.96;96062.22;5068498;28;20024;-81
2022/07/20 08:19:53;;;;;;;10.68;2.95;;;;;;;24.91;36.31;96054.34;5069251;28;20476;-82
2022/07/20 08:22:19;;;;;;;10.07;2.90;;;;;;;24.98;35.72;96049.53;5086828;28;20032;-81
2022/07/20 08:24:45;;;;;;;9.13;2.40;;;;;;;25.06;36.35;96054.56;5068808;28;20044;-85
2022/07/20 08:27:10;;;;;;;11.45;2.53;;;;;;;25.28;35.29;96055.63;5068956;28;20081;-81
2022/07/20 08:29:36;;;;;;;7.10;2.15;;;;;;;25.47;35.47;96053.38;5086895;28;20051;-80
2022/07/20 08:32:01;;;;;;;7.32;2.08;;;;;;;25.64;34.20;96049.75;5087213;28;20085;-81
2022/07/20 08:34:27;;;;;;;6.00;2.10;;;;;;;25.88;33.09;96041.19;5051911;28;20024;-81
2022/07/20 08:36:52;;;;;;;9.43;2.40;;;;;;;26.09;32.47;96035.88;5069764;28;20032;-80
2022/07/20 08:39:18;;;;;;;7.68;2.22;;;;;;;26.17;31.43;96040.88;5068324;28;20020;-82
2022/07/20 08:41:44;;;;;;;6.90;2.42;;;;;;;26.17;32.23;96040.88;5068987;28;20028;-81
2022/07/20 08:44:09;;;;;;;8.45;2.20;;;;;;;26.28;32.47;96039.88;5052591;28;20081;-80
2022/07/20 08:46:35;;;;;;;8.48;2.17;;;;;;;26.33;32.56;96041.88;5068691;28;20028;-80
2022/07/20 08:49:00;;;;;;;5.85;1.75;;;;;;;26.42;32.70;96043.03;5068895;28;20584;-82
2022/07/20 08:51:26;;;;;;;5.40;2.50;;;;;;;26.48;32.62;96034.81;5068041;28;20038;-80
2022/07/20 08:53:51;;;;;;;5.35;2.42;;;;;;;26.33;31.61;96025.38;5068846;28;20399;-82
2022/07/20 08:56:17;;;;;;;8.52;2.53;;;;;;;25.68;31.89;96028.94;5067819;28;20020;-80
2022/07/20 08:58:42;;;;;;;7.28;2.25;;;;;;;25.89;31.25;96021.69;5068393;28;20031;-81
2022/07/20 09:01:16;;;;;;;15.00;2.90;;;;;;;26.03;31.52;96030.34;5067522;28;20126;-82
2022/07/20 09:03:44;;;;;;;5.88;2.13;;;;;;;26.38;30.93;96019.06;5068398;28;20059;-80
2022/07/20 09:06:10;;;;;;;4.93;2.15;;;;;;;26.59;29.03;96024.69;5051940;28;20420;-81
2022/07/20 09:08:35;;;;;;;6.72;2.00;;;;;;;26.53;28.86;96010.94;5085659;28;20545;-80
2022/07/20 09:11:01;;;;;;;6.25;2.45;;;;;;;26.62;28.69;96024.16;5067956;28;20062;-80
2022/07/20 09:13:31;;;;;;;7.78;2.20;;;;;;;26.57;29.71;96015.91;5050783;28;20112;-82
2022/07/20 09:15:57;;;;;;;5.63;2.30;;;;;;;26.76;30.13;96021.78;5068441;28;20059;-81
2022/07/20 09:18:23;;;;;;;6.30;2.38;;;;;;;26.76;29.35;96019.84;5050761;28;20058;-81
2022/07/20 09:20:56;;;;;;;3.85;1.92;;;;;;;26.82;28.89;96009.72;5085892;28;20050;-81
2022/07/20 09:23:26;;;;;;;5.40;2.03;;;;;;;26.88;29.47;96013.31;5067486;28;20076;-80
2022/07/20 09:26:10;;;;;;;4.32;2.00;;;;;;;26.82;28.52;96008.88;5085233;28;20031;-81
2022/07/20 09:28:41;;;;;;;7.72;2.30;;;;;;;26.80;31.66;96009.16;5086166;28;20032;-81
2022/07/20 09:31:10;;;;;;;3.58;1.90;;;;;;;26.86;30.93;96002.56;5067523;28;20278;-81
2022/07/20 09:33:36;;;;;;;5.38;1.80;;;;;;;27.09;28.86;95999.66;5086210;28;20038;-82
2022/07/20 09:36:03;;;;;;;3.65;2.10;;;;;;;27.24;29.00;96005.25;5050664;28;20107;-81
2022/07/20 09:38:39;;;;;;;4.43;1.83;;;;;;;27.23;28.35;95995.31;5067741;28;20027;-81
2022/07/20 09:41:07;;;;;;;4.80;1.70;;;;;;;27.27;28.88;95996.44;5068102;28;20121;-82
2022/07/20 09:43:34;;;;;;;3.25;1.40;;;;;;;27.19;27.89;95987.84;5085339;28;20019;-81
2022/07/20 09:46:14;;;;;;;5.30;1.70;;;;;;;27.13;28.55;95982.34;5051277;28;20120;-81
2022/07/20 09:48:43;;;;;;;2.92;1.58;;;;;;;27.13;28.62;95981.53;5050720;28;20115;-81
2022/07/20 09:51:28;;;;;;;3.05;1.45;;;;;;;26.99;29.23;95990.25;5067506;28;20081;-81
2022/07/20 09:53:58;;;;;;;6.07;1.92;;;;;;;27.02;27.70;95984.22;5067310;28;20034;-80
2022/07/20 09:56:24;;;;;;;3.38;1.90;;;;;;;26.98;28.31;95983.09;5067044;28;20028;-82
2022/07/20 09:58:51;;;;;;;3.33;1.58;;;;;;;27.11;29.26;95981.78;5086784;28;20023;-81
2022/07/20 10:01:19;;;;;;;3.78;1.67;;;;;;;27.16;29.43;95983.72;5068117;28;20442;-82
2022/07/20 10:03:47;;;;;;;2.63;1.60;;;;;;;27.14;29.78;95978.50;5067958;28;20038;-81
2022/07/20 10:06:13;;;;;;;4.53;1.80;;;;;;;27.30;29.88;95972.19;5066994;28;20490;-82
2022/07/20 10:08:38;;;;;;;3.05;1.80;;;;;;;27.47;29.20;95971.97;5050686;28;20553;-82
2022/07/20 10:11:04;;;;;;;4.25;1.90;;;;;;;27.28;27.66;95962.28;5084871;28;20094;-80
2022/07/20 10:13:30;;;;;;;3.92;2.10;;;;;;;27.50;28.97;95963.97;5084905;28;20031;-81
2022/07/20 10:16:30;;;;;;;5.60;2.03;;;;;;;27.62;28.39;95957.38;5050374;28;20426;-81
2022/07/20 10:18:56;;;;;;;4.25;3.20;;;;;;;27.50;27.92;95950.19;5084323;28;20028;-81
2022/07/20 10:21:34;;;;;;;3.47;1.80;;;;;;;27.49;28.06;95967.81;5067337;28;20034;-82
2022/07/20 10:24:30;;;;;;;3.45;1.80;;;;;;;27.46;28.30;95957.38;5066409;28;20417;-80
2022/07/20 10:26:56;;;;;;;3.42;1.70;;;;;;;27.49;28.37;95961.47;5066275;28;20035;-79
2022/07/20 10:29:41;;;;;;;5.85;1.60;;;;;;;27.42;28.33;95952.69;5085598;28;20467;-82
2022/07/20 10:32:14;;;;;;;3.65;2.00;;;;;;;27.39;27.89;95949.34;5049718;28;20410;-79
2022/07/20 10:34:46;;;;;;;7.70;1.77;;;;;;;27.27;29.33;95946.88;5084881;28;20024;-79
2022/07/20 10:37:20;;;;;;;5.93;1.60;;;;;;;27.34;28.81;95945.78;5067083;28;20602;-80
2022/07/20 10:39:46;;;;;;;4.28;1.60;;;;;;;27.02;28.17;95931.94;5084511;28;20020;-81
2022/07/20 10:42:32;;;;;;;5.90;1.92;;;;;;;27.03;28.51;95919.84;5085138;28;20047;-81
2022/07/20 10:45:16;;;;;;;4.18;1.50;;;;;;;27.40;27.06;95917.97;5075440;28;20024;-80
2022/07/20 10:47:48;;;;;;;4.18;1.80;;;;;;;27.45;27.73;95916.31;5091288;28;20031;-80
2022/07/20 10:50:17;;;;;;;4.95;1.65;;;;;;;27.56;28.71;95918.00;5085210;28;20032;-80
2022/07/20 10:52:42;;;;;;;6.88;1.63;;;;;;;27.43;28.08;95910.25;5066794;28;20035;-80
2022/07/20 10:55:08;;;;;;;4.25;1.70;;;;;;;27.28;27.45;95914.66;5050302;28;20024;-81
2022/07/20 10:57:35;;;;;;;5.03;1.55;;;;;;;27.16;27.41;95923.19;5049531;28;20426;-79
2022/07/20 11:00:11;;;;;;;3.92;1.70;;;;;;;27.16;27.99;95917.66;5085422;28;20055;-80
2022/07/20 11:02:37;;;;;;;7.43;1.60;;;;;;;27.30;27.24;95911.63;5066613;28;20077;-82
2022/07/20 11:05:03;;;;;;;5.68;1.50;;;;;;;27.33;27.90;95902.81;5049721;28;20020;-81
2022/07/20 11:07:34;;;;;;;4.03;1.60;;;;;;;27.05;28.68;95905.81;5050011;28;20024;-80
2022/07/20 11:10:00;;;;;;;4.53;1.77;;;;;;;27.26;28.34;95901.16;5049464;28;20024;-79
2022/07/20 11:12:29;;;;;;;8.02;1.77;;;;;;;27.22;28.53;95901.97;5049773;28;20125;-81
2022/07/20 11:14:56;;;;;;;2.88;1.90;;;;;;;27.31;28.52;95894.03;5084082;28;20271;-81
2022/07/20 11:17:21;;;;;;;7.28;2.17;;;;;;;27.75;28.36;95904.53;5084896;28;20035;-80
2022/07/20 11:19:47;;;;;;;2.55;1.90;;;;;;;27.85;27.92;95895.44;5066097;28;20044;-80
2022/07/20 11:22:12;;;;;;;6.55;1.90;;;;;;;27.95;27.55;95897.34;5084341;28;20142;-81
2022/07/20 11:24:38;;;;;;;6.03;1.77;;;;;;;28.12;27.89;95890.69;5084283;28;20024;-80
2022/07/20 11:27:16;;;;;;;4.45;1.63;;;;;;;28.24;27.22;95891.22;5065906;28;20406;-82
2022/07/20 11:29:51;;;;;;;3.50;1.60;;;;;;;28.33;27.26;95879.63;5084510;28;20028;-82
2022/07/20 11:32:17;;;;;;;5.13;2.42;;;;;;;28.43;26.05;95871.31;5065159;28;20028;-79
2022/07/20 11:34:44;;;;;;;4.63;1.90;;;;;;;28.56;26.46;95874.59;5084685;28;20031;-80